Nautilus — OUYX2 — position and weather

sailwx.info

Track history (hours):
 
Tides and Currents Weather Stations Pressure Air Temp Water Temp Dewpoint Dewpoint Depression Visibility Wind Speed Wind Dir Waves Ship Positions

Nautilus

Last reported at 2014-Nov-27 02:17 UTC. Time now 2014-Nov-27 05:33 UTC.
Position N 57°00' E 017°21'.

Length 120 m; draft 5.1 m.

Type: Ship. MMSI: 219425000.

Date/timePositionNaut miles runAvg speedWind from/ knotsBaromVisibWave heightAir tempDewpointWater temp
2014-Nov-27 02:17N 57°00' E 017°21'912.4
2014-Nov-27 01:33N 57°09' E 017°27'1312.7
2014-Nov-27 00:34N 57°21' E 017°35'1212.5
2014-Nov-26 23:34N 57°32' E 017°42'11 0.4
2014-Nov-25 17:14N 57°43' E 017°48'911.9
2014-Nov-25 16:31N 57°35' E 017°48'1111.8
2014-Nov-25 15:33N 57°24' E 017°44'1211.9
2014-Nov-25 14:32N 57°11' E 017°43'11611.6
2014-Nov-25 04:33N 55°19' E 018°35'1212.0
2014-Nov-25 03:33N 55°08' E 018°44'1211.9
2014-Nov-25 02:33N 54°58' E 018°53'1212.2
2014-Nov-25 01:33N 54°47' E 019°02'1211.7
2014-Nov-25 00:33N 54°35' E 019°05'1111.4
2014-Nov-24 23:33N 54°26' E 018°54'7 6.6
2014-Nov-24 22:33N 54°24' E 018°43'0 0.0
2014-Nov-24 21:31N 54°24' E 018°43'0 0.0
2014-Nov-24 20:31N 54°24' E 018°43'0 0.0
2014-Nov-24 19:31N 54°24' E 018°43'0 0.0
2014-Nov-24 18:31N 54°24' E 018°43'0 0.0
2014-Nov-24 17:31N 54°24' E 018°43'0 0.0
2014-Nov-24 16:28N 54°24' E 018°43'0 0.0
2014-Nov-24 15:31N 54°24' E 018°43'0 0.0
2014-Nov-24 14:31N 54°24' E 018°43'0 0.0
2014-Nov-24 13:31N 54°24' E 018°43'0 0.0
2014-Nov-24 12:31N 54°24' E 018°43'0 0.0
2014-Nov-24 11:31N 54°24' E 018°43'0 0.0
2014-Nov-24 10:31N 54°24' E 018°43'0 0.0
2014-Nov-24 09:31N 54°24' E 018°43'0 0.0
2014-Nov-24 08:31N 54°24' E 018°43'0 0.0
2014-Nov-24 07:31N 54°24' E 018°43'0 0.0
2014-Nov-24 06:31N 54°24' E 018°43'0 0.0
2014-Nov-24 05:31N 54°24' E 018°43'0 0.0
2014-Nov-24 04:31N 54°24' E 018°43'0 0.0
2014-Nov-24 03:31N 54°24' E 018°43'0 0.0
2014-Nov-24 02:31N 54°24' E 018°43'0 0.3
2014-Nov-24 01:33N 54°24' E 018°43'9 9.0
2014-Nov-24 00:33N 54°28' E 018°57'1110.9
2014-Nov-23 23:33N 54°39' E 019°04'1010.4
2014-Nov-23 22:33N 54°48' E 018°55'1010.2
2014-Nov-23 21:33N 54°54' E 018°41'10 9.8
2014-Nov-23 20:33N 54°54' E 018°24'1110.8
2014-Nov-23 19:33N 54°54' E 018°05'1211.7
2014-Nov-23 18:31N 54°54' E 017°44'9411.6
2014-Nov-23 10:25N 54°39' E 015°03'1111.4
2014-Nov-23 09:25N 54°37' E 014°43'2110.8
2014-Nov-23 07:30N 54°39' E 014°08'1510.8
2014-Nov-23 06:05N 54°44' E 013°43'3910.7
2014-Nov-23 02:25N 54°41' E 012°35'1311.6
2014-Nov-23 01:19N 54°34' E 012°18'911.9
2014-Nov-23 00:33N 54°25' E 012°11'1212.0
2014-Nov-22 23:33N 54°17' E 011°57'4 4.3
2014-Nov-22 22:33N 54°12' E 011°57'0 0.0
2014-Nov-22 21:27N 54°12' E 011°57'0 0.0
2014-Nov-22 20:33N 54°12' E 011°57'1 0.7
2014-Nov-22 19:34N 54°13' E 011°56'1111.1
2014-Nov-22 18:34N 54°23' E 011°48'  
2014-Nov-18 01:23N 57°04' E 011°40'1011.7
2014-Nov-18 00:31N 57°13' E 011°33'1111.3
2014-Nov-17 23:33N 57°23' E 011°26'1110.8
2014-Nov-17 22:33N 57°32' E 011°14'1111.1
2014-Nov-17 21:33N 57°40' E 010°60'1110.8
2014-Nov-17 20:34N 57°47' E 010°45'9 9.1
2014-Nov-17 19:33N 57°49' E 010°28'64 9.1
2014-Nov-17 12:34N 57°58' E 008°29'8 8.1
2014-Nov-17 11:33N 58°01' E 008°15'  
Track history (hours):
 
Tides and Currents Weather Stations Pressure Air Temp Water Temp Dewpoint Dewpoint Depression Visibility Wind Speed Wind Dir Waves Ship Positions

Nautilus

Last reported at 2014-Nov-27 02:17 UTC. Time now 2014-Nov-27 05:33 UTC.
Position N 57°00' E 017°21'.

Length 120 m; draft 5.1 m.

Type: Ship. MMSI: 219425000.

Date/timePositionNaut miles runAvg speedWind from/ knotsBaromVisibWave heightAir tempDewpointWater temp
2014-Nov-27 02:17N 57°00' E 017°21'912.4
2014-Nov-27 01:33N 57°09' E 017°27'1312.7
2014-Nov-27 00:34N 57°21' E 017°35'1212.5
2014-Nov-26 23:34N 57°32' E 017°42'11 0.4
2014-Nov-25 17:14N 57°43' E 017°48'911.9
2014-Nov-25 16:31N 57°35' E 017°48'1111.8
2014-Nov-25 15:33N 57°24' E 017°44'1211.9
2014-Nov-25 14:32N 57°11' E 017°43'11611.6
2014-Nov-25 04:33N 55°19' E 018°35'1212.0
2014-Nov-25 03:33N 55°08' E 018°44'1211.9
2014-Nov-25 02:33N 54°58' E 018°53'1212.2
2014-Nov-25 01:33N 54°47' E 019°02'1211.7
2014-Nov-25 00:33N 54°35' E 019°05'1111.4
2014-Nov-24 23:33N 54°26' E 018°54'7 6.6
2014-Nov-24 22:33N 54°24' E 018°43'0 0.0
2014-Nov-24 21:31N 54°24' E 018°43'0 0.0
2014-Nov-24 20:31N 54°24' E 018°43'0 0.0
2014-Nov-24 19:31N 54°24' E 018°43'0 0.0
2014-Nov-24 18:31N 54°24' E 018°43'0 0.0
2014-Nov-24 17:31N 54°24' E 018°43'0 0.0
2014-Nov-24 16:28N 54°24' E 018°43'0 0.0
2014-Nov-24 15:31N 54°24' E 018°43'0 0.0
2014-Nov-24 14:31N 54°24' E 018°43'0 0.0
2014-Nov-24 13:31N 54°24' E 018°43'0 0.0
2014-Nov-24 12:31N 54°24' E 018°43'0 0.0
2014-Nov-24 11:31N 54°24' E 018°43'0 0.0
2014-Nov-24 10:31N 54°24' E 018°43'0 0.0
2014-Nov-24 09:31N 54°24' E 018°43'0 0.0
2014-Nov-24 08:31N 54°24' E 018°43'0 0.0
2014-Nov-24 07:31N 54°24' E 018°43'0 0.0
2014-Nov-24 06:31N 54°24' E 018°43'0 0.0
2014-Nov-24 05:31N 54°24' E 018°43'0 0.0
2014-Nov-24 04:31N 54°24' E 018°43'0 0.0
2014-Nov-24 03:31N 54°24' E 018°43'0 0.0
2014-Nov-24 02:31N 54°24' E 018°43'0 0.3
2014-Nov-24 01:33N 54°24' E 018°43'9 9.0
2014-Nov-24 00:33N 54°28' E 018°57'1110.9
2014-Nov-23 23:33N 54°39' E 019°04'1010.4
2014-Nov-23 22:33N 54°48' E 018°55'1010.2
2014-Nov-23 21:33N 54°54' E 018°41'10 9.8
2014-Nov-23 20:33N 54°54' E 018°24'1110.8
2014-Nov-23 19:33N 54°54' E 018°05'1211.7
2014-Nov-23 18:31N 54°54' E 017°44'9411.6
2014-Nov-23 10:25N 54°39' E 015°03'1111.4
2014-Nov-23 09:25N 54°37' E 014°43'2110.8
2014-Nov-23 07:30N 54°39' E 014°08'1510.8
2014-Nov-23 06:05N 54°44' E 013°43'3910.7
2014-Nov-23 02:25N 54°41' E 012°35'1311.6
2014-Nov-23 01:19N 54°34' E 012°18'911.9
2014-Nov-23 00:33N 54°25' E 012°11'1212.0
2014-Nov-22 23:33N 54°17' E 011°57'4 4.3
2014-Nov-22 22:33N 54°12' E 011°57'0 0.0
2014-Nov-22 21:27N 54°12' E 011°57'0 0.0
2014-Nov-22 20:33N 54°12' E 011°57'1 0.7
2014-Nov-22 19:34N 54°13' E 011°56'1111.1
2014-Nov-22 18:34N 54°23' E 011°48'  
2014-Nov-18 01:23N 57°04' E 011°40'1011.7
2014-Nov-18 00:31N 57°13' E 011°33'1111.3
2014-Nov-17 23:33N 57°23' E 011°26'1110.8
2014-Nov-17 22:33N 57°32' E 011°14'1111.1
2014-Nov-17 21:33N 57°40' E 010°60'1110.8
2014-Nov-17 20:34N 57°47' E 010°45'9 9.1
2014-Nov-17 19:33N 57°49' E 010°28'64 9.1
2014-Nov-17 12:34N 57°58' E 008°29'8 8.1
2014-Nov-17 11:33N 58°01' E 008°15'  

Dump ship's entire track history